Time;durP1;ratioP1;P1;durP2;ratioP2;P2;SDS_P1;SDS_P2;PMS_P1;PMS_P2;Temp;Humidity;BMP_temperature;BMP_pressure;BME280_temperature;BME280_humidity;BME280_pressure;Samples;Min_cycle;Max_cycle;Signal;HPM_P1;HPM_P2
2022/10/27 00:00:26;;;;;;;36.30;19.92;;;;;;;9.36;100.00;101181.09;4862395;29;20480;-78
2022/10/27 00:02:53;;;;;;;36.25;20.63;;;;;;;9.39;100.00;101188.72;4862043;29;20041;-76
2022/10/27 00:05:18;;;;;;;39.80;21.17;;;;;;;9.41;100.00;101182.53;4862306;29;20583;-77
2022/10/27 00:07:45;;;;;;;40.30;21.05;;;;;;;9.39;100.00;101179.38;4861174;29;20044;-76
2022/10/27 00:10:11;;;;;;;40.22;20.85;;;;;;;9.43;100.00;101189.41;4862637;29;20383;-77
2022/10/27 00:12:37;;;;;;;35.60;19.77;;;;;;;9.45;100.00;101197.47;4861589;29;20056;-77
2022/10/27 00:15:02;;;;;;;36.10;19.27;;;;;;;9.45;100.00;101194.63;4845884;29;20460;-76
2022/10/27 00:17:29;;;;;;;30.38;19.08;;;;;;;9.38;100.00;101183.47;4860881;29;20029;-76
2022/10/27 00:19:55;;;;;;;31.45;18.67;;;;;;;9.42;100.00;101182.09;4861220;29;20488;-77
2022/10/27 00:22:21;;;;;;;30.85;19.25;;;;;;;9.46;100.00;101185.59;4862310;29;20056;-76
2022/10/27 00:24:48;;;;;;;30.92;18.48;;;;;;;9.44;100.00;101187.34;4876168;29;20427;-77
2022/10/27 00:27:14;;;;;;;36.40;19.42;;;;;;;9.52;100.00;101185.81;4846180;29;20033;-77
2022/10/27 00:29:39;;;;;;;37.33;20.35;;;;;;;9.54;100.00;101191.84;4876314;29;20471;-77
2022/10/27 00:32:05;;;;;;;32.47;19.88;;;;;;;9.56;100.00;101197.88;4860412;29;20038;-77
2022/10/27 00:34:30;;;;;;;29.00;18.70;;;;;;;9.56;100.00;101192.97;4860677;29;20430;-77
2022/10/27 00:36:56;;;;;;;30.98;19.10;;;;;;;9.57;100.00;101188.88;4861948;29;20033;-78
2022/10/27 00:39:21;;;;;;;47.55;21.27;;;;;;;9.60;100.00;101202.19;4860470;29;20096;-78
2022/10/27 00:41:46;;;;;;;38.95;20.50;;;;;;;9.58;100.00;101187.59;4861678;29;20391;-79
2022/10/27 00:44:37;;;;;;;37.00;19.85;;;;;;;9.65;100.00;101204.44;4860722;29;20026;-78
2022/10/27 00:47:21;;;;;;;36.30;18.95;;;;;;;9.63;100.00;101198.44;4860610;29;20041;-78
2022/10/27 00:50:08;;;;;;;35.40;19.80;;;;;;;9.61;100.00;101195.22;4861789;29;20045;-78
2022/10/27 00:52:37;;;;;;;34.00;20.08;;;;;;;9.65;100.00;101200.78;4860532;29;20045;-78
2022/10/27 00:55:37;;;;;;;34.15;19.63;;;;;;;9.62;100.00;101205.38;4861132;29;20033;-80
2022/10/27 00:58:09;;;;;;;33.35;18.33;;;;;;;9.57;100.00;101199.47;4862017;29;20034;-78
2022/10/27 01:00:51;;;;;;;34.58;20.05;;;;;;;9.54;100.00;101200.41;4875049;29;20029;-80
2022/10/27 01:03:19;;;;;;;32.42;18.80;;;;;;;9.47;100.00;101204.31;4860819;29;20045;-80
2022/10/27 01:05:46;;;;;;;32.35;18.77;;;;;;;9.44;100.00;101205.25;4859398;29;20049;-78
2022/10/27 01:08:12;;;;;;;35.50;19.15;;;;;;;9.20;100.00;101172.69;4859724;29;20025;-80
2022/10/27 01:10:37;;;;;;;33.03;19.70;;;;;;;9.34;100.00;101208.50;4859593;29;20479;-78
2022/10/27 01:13:03;;;;;;;31.63;17.63;;;;;;;9.31;100.00;101212.25;4859138;29;20093;-78
2022/10/27 01:15:37;;;;;;;28.80;18.00;;;;;;;9.22;100.00;101204.41;4863022;29;20029;-78
2022/10/27 01:18:21;;;;;;;32.67;18.63;;;;;;;9.00;100.00;101180.78;4863843;29;20101;-77
2022/10/27 01:21:17;;;;;;;32.78;19.13;;;;;;;9.15;100.00;101210.38;4864335;29;20518;-79
2022/10/27 01:23:56;;;;;;;31.60;19.40;;;;;;;9.07;100.00;101214.72;4864042;29;20104;-79
2022/10/27 01:26:38;;;;;;;34.40;17.35;;;;;;;9.01;100.00;101219.41;4864023;29;20032;-79
2022/10/27 01:29:06;;;;;;;33.22;19.02;;;;;;;8.95;100.00;101218.41;4878335;29;20029;-78
2022/10/27 01:31:52;;;;;;;30.73;18.50;;;;;;;8.89;100.00;101217.41;4863247;29;20093;-78
2022/10/27 01:34:18;;;;;;;30.27;17.05;;;;;;;8.85;100.00;101223.22;4862884;29;20051;-78
2022/10/27 01:36:50;;;;;;;25.38;18.02;;;;;;;8.81;100.00;101234.72;4863659;29;20029;-78
2022/10/27 01:39:17;;;;;;;30.52;18.58;;;;;;;8.75;100.00;101228.03;4864172;29;20535;-78
2022/10/27 01:41:50;;;;;;;36.42;18.88;;;;;;;8.70;100.00;101230.66;4864678;29;20494;-78
2022/10/27 01:44:30;;;;;;;30.70;18.85;;;;;;;8.55;100.00;101213.22;4864852;29;20037;-78
2022/10/27 01:46:57;;;;;;;31.02;17.33;;;;;;;8.63;100.00;101233.72;4863567;29;20037;-79
2022/10/27 01:49:24;;;;;;;26.08;17.17;;;;;;;8.61;100.00;101227.69;4877462;29;20046;-79
2022/10/27 01:51:49;;;;;;;31.45;17.95;;;;;;;8.57;100.00;101227.81;4864486;29;20037;-79
2022/10/27 01:54:16;;;;;;;30.38;18.15;;;;;;;8.57;100.00;101230.66;4863398;29;20037;-79
2022/10/27 01:57:14;;;;;;;26.40;17.45;;;;;;;8.57;100.00;101242.03;4864796;29;20064;-78
2022/10/27 02:00:03;;;;;;;32.85;18.02;;;;;;;8.55;100.00;101243.78;4864756;29;20029;-78
2022/10/27 02:03:12;;;;;;;29.15;17.40;;;;;;;8.55;100.00;101238.06;4864854;29;20058;-78
2022/10/27 02:05:47;;;;;;;33.92;17.55;;;;;;;8.53;100.00;101244.22;4807591;29;20146;-77
2022/10/27 02:08:48;;;;;;;28.75;16.65;;;;;;;8.50;100.00;101233.75;4792627;29;20484;-78
2022/10/27 02:11:15;;;;;;;29.33;17.70;;;;;;;8.51;100.00;101243.09;4808505;29;20035;-76
2022/10/27 02:13:43;;;;;;;30.10;17.48;;;;;;;8.49;100.00;101243.53;4807933;29;20107;-77
2022/10/27 02:16:20;;;;;;;31.30;18.10;;;;;;;8.47;100.00;101243.19;4807574;29;20118;-78
2022/10/27 02:19:16;;;;;;;30.33;18.15;;;;;;;8.43;100.00;101241.69;4807526;29;20045;-78
2022/10/27 02:21:50;;;;;;;26.98;17.13;;;;;;;8.33;100.00;101241.59;4845868;29;20057;-78
2022/10/27 02:24:16;;;;;;;32.72;18.95;;;;;;;8.26;100.00;101241.78;4860576;29;20405;-78
2022/10/27 02:27:05;;;;;;;30.42;18.20;;;;;;;8.22;100.00;101251.69;4845681;29;20060;-78
2022/10/27 02:29:39;;;;;;;32.00;17.75;;;;;;;8.19;100.00;101256.28;4844797;29;20040;-78
2022/10/27 02:32:16;;;;;;;32.03;17.58;;;;;;;8.12;100.00;101264.97;4846154;29;20416;-78
2022/10/27 02:34:42;;;;;;;29.17;17.83;;;;;;;8.07;100.00;101259.03;4830397;29;20037;-77
2022/10/27 02:37:10;;;;;;;28.13;16.35;;;;;;;7.98;100.00;101262.56;4844778;29;20033;-78
2022/10/27 02:39:55;;;;;;;33.67;18.52;;;;;;;8.01;100.00;101266.56;4844350;29;20034;-78
2022/10/27 02:42:20;;;;;;;27.77;18.42;;;;;;;7.76;100.00;101228.25;4845302;29;20111;-77
2022/10/27 02:44:46;;;;;;;28.50;18.38;;;;;;;7.90;100.00;101258.34;4844418;29;20026;-78
2022/10/27 02:47:12;;;;;;;31.70;18.13;;;;;;;7.88;100.00;101258.78;4845381;29;20034;-79
2022/10/27 02:49:37;;;;;;;30.70;18.95;;;;;;;7.86;100.00;101257.66;4843807;29;20040;-79
2022/10/27 02:52:04;;;;;;;31.63;19.15;;;;;;;7.79;100.00;101250.09;4845498;29;20104;-77
2022/10/27 02:54:31;;;;;;;32.38;18.88;;;;;;;7.83;100.00;101265.03;4845331;29;20552;-78
2022/10/27 02:56:58;;;;;;;38.65;18.77;;;;;;;7.83;100.00;101269.91;4846485;29;20166;-79
2022/10/27 02:59:24;;;;;;;27.05;18.13;;;;;;;7.81;100.00;101263.91;4844098;29;20053;-78
2022/10/27 03:01:50;;;;;;;35.05;17.95;;;;;;;7.84;100.00;101258.09;4845041;29;20118;-77
2022/10/27 03:04:19;;;;;;;33.83;19.13;;;;;;;7.85;100.00;101268.22;4844702;29;20056;-78
2022/10/27 03:06:45;;;;;;;41.05;18.85;;;;;;;7.84;100.00;101272.31;4861529;29;20053;-78
2022/10/27 03:09:11;;;;;;;32.97;19.55;;;;;;;7.84;100.00;101269.47;4863112;29;20029;-78
2022/10/27 03:11:37;;;;;;;31.55;17.73;;;;;;;7.81;100.00;101266.75;4877574;29;20025;-78
2022/10/27 03:14:02;;;;;;;34.70;19.10;;;;;;;7.81;100.00;101275.28;4862931;29;20546;-77
2022/10/27 03:16:30;;;;;;;30.38;17.25;;;;;;;7.81;100.00;101275.28;4862624;29;20033;-78
2022/10/27 03:18:58;;;;;;;31.48;18.48;;;;;;;7.80;100.00;101276.50;4861697;29;20077;-78
2022/10/27 03:21:23;;;;;;;26.23;17.20;;;;;;;7.79;100.00;101278.56;4863201;29;20026;-78
2022/10/27 03:23:49;;;;;;;32.10;18.30;;;;;;;7.79;100.00;101287.09;4862787;29;20383;-78
2022/10/27 03:26:16;;;;;;;31.98;17.63;;;;;;;7.77;100.00;101283.09;4862180;29;20026;-78
2022/10/27 03:28:41;;;;;;;32.20;16.25;;;;;;;7.58;100.00;101264.94;4861940;29;20029;-78
2022/10/27 03:31:07;;;;;;;33.22;17.88;;;;;;;7.76;100.00;101287.22;4863420;29;20029;-78
2022/10/27 03:33:34;;;;;;;28.75;16.92;;;;;;;7.73;100.00;101286.03;4862615;29;20049;-77
2022/10/27 03:36:01;;;;;;;30.25;18.73;;;;;;;7.70;100.00;101294.69;4862625;29;20029;-78
2022/10/27 03:38:27;;;;;;;30.00;18.17;;;;;;;7.62;100.00;101287.59;4862436;29;20120;-78
2022/10/27 03:40:52;;;;;;;30.95;18.73;;;;;;;7.61;100.00;101292.50;4862178;29;20093;-79
2022/10/27 03:43:18;;;;;;;31.27;18.42;;;;;;;7.62;100.00;101290.44;4862666;29;20420;-77
2022/10/27 03:45:50;;;;;;;34.85;18.50;;;;;;;7.57;100.00;101297.47;4861267;29;20093;-78
2022/10/27 03:48:16;;;;;;;38.67;17.98;;;;;;;7.59;100.00;101300.66;4846596;29;20073;-77
2022/10/27 03:50:50;;;;;;;31.73;19.30;;;;;;;7.49;100.00;101282.66;4861472;29;20061;-77
2022/10/27 03:53:17;;;;;;;32.60;18.65;;;;;;;7.64;100.00;101313.53;4876375;29;20064;-78
2022/10/27 03:55:43;;;;;;;33.22;18.77;;;;;;;7.62;100.00;101311.13;4846066;29;20061;-76
2022/10/27 03:58:12;;;;;;;45.90;18.27;;;;;;;7.64;100.00;101305.00;4862857;29;20029;-78
2022/10/27 04:00:39;;;;;;;32.30;16.90;;;;;;;7.66;100.00;101313.91;4861346;29;20075;-78
2022/10/27 04:03:04;;;;;;;25.15;16.23;;;;;;;7.46;100.00;101269.34;4861047;29;20487;-78
2022/10/27 04:05:30;;;;;;;28.70;17.08;;;;;;;7.65;100.00;101306.59;4860502;29;20060;-77
2022/10/27 04:07:55;;;;;;;33.22;18.85;;;;;;;7.69;100.00;101313.78;4845463;29;20025;-78
2022/10/27 04:10:21;;;;;;;30.85;17.05;;;;;;;7.68;100.00;101312.19;4860767;29;20033;-78
2022/10/27 04:12:48;;;;;;;29.83;17.17;;;;;;;7.62;100.00;101301.81;4861107;29;20045;-78
2022/10/27 04:15:15;;;;;;;34.90;18.02;;;;;;;7.61;100.00;101314.44;4861096;29;20501;-77
2022/10/27 04:17:42;;;;;;;36.25;17.70;;;;;;;7.51;100.00;101296.44;4860676;29;20108;-78
2022/10/27 04:20:09;;;;;;;38.47;18.88;;;;;;;7.59;100.00;101323.41;4861865;29;20025;-78
2022/10/27 04:22:34;;;;;;;31.23;18.20;;;;;;;7.55;100.00;101311.34;4861806;29;20045;-78
2022/10/27 04:25:01;;;;;;;29.15;18.05;;;;;;;7.55;100.00;101302.81;4860509;29;20360;-76
2022/10/27 04:27:27;;;;;;;31.05;17.27;;;;;;;7.51;100.00;101304.97;4861041;29;20046;-76
2022/10/27 04:29:53;;;;;;;27.60;16.52;;;;;;;7.47;100.00;101309.94;4860633;29;20446;-78
2022/10/27 04:32:20;;;;;;;29.55;18.02;;;;;;;7.44;100.00;101310.81;4878099;29;20092;-78
2022/10/27 04:34:46;;;;;;;29.92;17.48;;;;;;;7.46;100.00;101305.50;4879262;29;20036;-78
2022/10/27 04:37:12;;;;;;;29.30;17.50;;;;;;;7.45;100.00;101304.69;4878893;29;20037;-77
2022/10/27 04:39:52;;;;;;;28.33;16.25;;;;;;;7.45;100.00;101318.13;4879117;29;20059;-78
2022/10/27 04:42:18;;;;;;;28.02;15.02;;;;;;;7.44;100.00;101319.34;4879015;29;20490;-78
2022/10/27 04:44:44;;;;;;;28.70;15.77;;;;;;;7.41;100.00;101318.22;4880105;29;20029;-76
2022/10/27 04:47:10;;;;;;;29.98;16.33;;;;;;;7.44;100.00;101322.19;4880112;29;20044;-77
2022/10/27 04:49:36;;;;;;;31.33;18.40;;;;;;;7.40;100.00;101325.16;4863020;29;20044;-78
2022/10/27 04:52:02;;;;;;;26.25;15.25;;;;;;;7.43;100.00;101323.44;4862786;29;20101;-76
2022/10/27 04:54:28;;;;;;;27.77;16.60;;;;;;;7.44;100.00;101322.19;4878784;29;20137;-78
2022/10/27 04:56:54;;;;;;;32.70;16.60;;;;;;;7.41;100.00;101323.09;4848974;29;20045;-78
2022/10/27 04:59:21;;;;;;;29.73;16.48;;;;;;;7.46;100.00;101323.38;4879089;29;20036;-78
2022/10/27 05:01:47;;;;;;;28.77;15.52;;;;;;;7.47;100.00;101324.16;4880257;29;20036;-78
2022/10/27 05:04:13;;;;;;;27.60;15.13;;;;;;;7.50;100.00;101335.44;4863646;29;20040;-77
2022/10/27 05:06:39;;;;;;;32.78;16.63;;;;;;;7.49;100.00;101325.31;4876408;29;20061;-79
2022/10/27 05:09:05;;;;;;;27.30;15.63;;;;;;;7.54;100.00;101338.97;4872517;29;20041;-83
2022/10/27 05:11:39;;;;;;;24.00;15.85;;;;;;;7.56;100.00;101337.75;4881366;29;20047;-81
2022/10/27 05:14:04;;;;;;;30.40;16.05;;;;;;;7.57;100.00;101333.66;4879311;29;20030;-80
2022/10/27 05:16:30;;;;;;;27.98;16.02;;;;;;;7.55;100.00;101336.94;4879747;29;20113;-82
2022/10/27 05:18:57;;;;;;;27.67;16.80;;;;;;;7.51;100.00;101333.41;4880718;29;20029;-84
2022/10/27 05:21:22;;;;;;;29.33;14.85;;;;;;;7.62;100.00;101345.25;4879354;29;20065;-81
2022/10/27 05:23:47;;;;;;;30.23;16.15;;;;;;;7.65;100.00;101344.38;4879950;29;20041;-77
2022/10/27 05:26:14;;;;;;;29.38;16.13;;;;;;;7.68;100.00;101345.53;4878627;29;20029;-78
2022/10/27 05:28:42;;;;;;;27.48;15.10;;;;;;;7.69;100.00;101356.47;4880247;29;20079;-79
2022/10/27 05:31:08;;;;;;;29.05;15.63;;;;;;;7.71;100.00;101351.16;4878962;29;20084;-78
2022/10/27 05:33:33;;;;;;;32.20;15.20;;;;;;;7.72;100.00;101366.16;4863623;29;20052;-78
2022/10/27 05:36:01;;;;;;;34.97;16.17;;;;;;;7.74;100.00;101377.88;4879745;29;20025;-78
2022/10/27 05:38:28;;;;;;;32.85;16.42;;;;;;;7.76;100.00;101370.50;4880016;29;20040;-77
2022/10/27 05:41:10;;;;;;;31.08;16.42;;;;;;;7.82;100.00;101380.09;4879047;29;20033;-78
2022/10/27 05:43:37;;;;;;;;;;;;;;;7.83;100.00;101375.19;4878928;29;20478;-78
2022/10/27 05:46:11;;;;;;;44.35;20.75;;;;;;;7.84;100.00;101374.75;4879495;29;19995;-78
2022/10/27 05:48:37;;;;;;;37.47;20.73;;;;;;;7.88;100.00;101383.19;4879985;29;20025;-78
2022/10/27 05:51:11;;;;;;;40.38;19.35;;;;;;;7.91;100.00;101382.31;4861963;29;20021;-80
2022/10/27 05:53:38;;;;;;;39.15;19.35;;;;;;;7.93;100.00;101386.28;4878637;29;20044;-78
2022/10/27 05:56:14;;;;;;;34.00;18.80;;;;;;;7.93;100.00;101379.78;4878414;29;20097;-79
2022/10/27 05:58:40;;;;;;;37.03;19.15;;;;;;;7.97;100.00;101383.34;4876990;29;20039;-79
2022/10/27 06:01:11;;;;;;;73.10;21.58;;;;;;;8.01;100.00;101383.25;4880378;29;20049;-78
2022/10/27 06:03:36;;;;;;;78.78;24.25;;;;;;;8.04;100.00;101379.50;4881892;29;20466;-78
2022/10/27 06:06:03;;;;;;;81.28;22.48;;;;;;;8.11;100.00;101387.84;4882391;29;20045;-78
2022/10/27 06:08:28;;;;;;;59.42;21.35;;;;;;;8.18;100.00;101397.00;4865885;29;20040;-78
2022/10/27 06:10:55;;;;;;;65.03;21.52;;;;;;;8.26;100.00;101400.47;4881317;29;20036;-78
2022/10/27 06:13:21;;;;;;;46.30;18.92;;;;;;;8.27;100.00;101393.50;4881148;29;20395;-79
2022/10/27 06:15:46;;;;;;;34.50;18.20;;;;;;;8.35;100.00;101407.13;4882302;29;20021;-79
2022/10/27 06:18:12;;;;;;;40.10;16.75;;;;;;;8.39;100.00;101410.66;4882978;29;20058;-78
2022/10/27 06:20:38;;;;;;;25.85;15.77;;;;;;;8.40;100.00;101408.59;4882236;29;20041;-78
2022/10/27 06:23:03;;;;;;;35.75;15.13;;;;;;;8.46;100.00;101418.16;4881820;29;20124;-79
2022/10/27 06:25:29;;;;;;;35.28;16.02;;;;;;;8.49;100.00;101417.28;4881201;29;20475;-79
2022/10/27 06:27:55;;;;;;;30.17;14.90;;;;;;;8.54;100.00;101419.59;4881053;29;20040;-78
2022/10/27 06:30:22;;;;;;;50.50;17.33;;;;;;;8.60;100.00;101419.84;4865740;29;20040;-79
2022/10/27 06:32:48;;;;;;;39.08;15.60;;;;;;;8.64;100.00;101424.16;4880835;29;20489;-78
2022/10/27 06:35:13;;;;;;;32.95;14.80;;;;;;;8.70;100.00;101430.13;4882070;29;20101;-79
2022/10/27 06:37:43;;;;;;;55.80;17.98;;;;;;;8.76;100.00;101426.22;4880778;29;20387;-79
2022/10/27 06:40:13;;;;;;;55.65;19.45;;;;;;;8.75;100.00;101421.00;4880885;29;20128;-78
2022/10/27 06:42:39;;;;;;;76.25;21.23;;;;;;;8.91;100.00;101426.59;4882847;29;20122;-78
2022/10/27 06:45:05;;;;;;;45.92;17.33;;;;;;;9.02;100.00;101434.81;4881586;29;20415;-79
2022/10/27 06:47:31;;;;;;;46.55;15.93;;;;;;;9.12;100.00;101437.34;4882760;29;20033;-80
2022/10/27 06:50:02;;;;;;;48.00;17.52;;;;;;;9.21;100.00;101443.16;4881429;29;20178;-78
2022/10/27 06:52:29;;;;;;;38.38;18.00;;;;;;;9.31;100.00;101440.41;4882774;29;20025;-79
2022/10/27 06:54:55;;;;;;;37.50;15.55;;;;;;;9.39;100.00;101442.59;4880577;29;20124;-78
2022/10/27 06:57:22;;;;;;;32.70;15.77;;;;;;;9.47;100.00;101438.25;4882003;29;20029;-78
2022/10/27 06:59:47;;;;;;;34.15;16.10;;;;;;;9.56;100.00;101451.81;4880504;29;20040;-75
2022/10/27 07:02:13;;;;;;;46.08;16.45;;;;;;;9.62;100.00;101438.59;4880280;29;20021;-74
2022/10/27 07:04:40;;;;;;;40.05;15.77;;;;;;;9.75;100.00;101450.81;4880119;29;20032;-75
2022/10/27 07:07:06;;;;;;;46.53;16.73;;;;;;;9.91;100.00;101461.28;4880174;29;20029;-75
2022/10/27 07:09:32;;;;;;;44.13;15.88;;;;;;;9.95;100.00;101444.81;4865125;29;20040;-75
2022/10/27 07:11:58;;;;;;;35.83;16.90;;;;;;;9.53;100.00;101359.41;4880571;29;20028;-75
2022/10/27 07:14:23;;;;;;;42.47;16.40;;;;;;;10.30;100.00;101466.41;4880078;29;20478;-75
2022/10/27 07:16:49;;;;;;;47.83;16.02;;;;;;;10.43;100.00;101460.69;4880004;29;20037;-75
2022/10/27 07:19:15;;;;;;;38.20;16.33;;;;;;;10.60;100.00;101458.41;4881149;29;20029;-74
2022/10/27 07:21:42;;;;;;;55.80;16.80;;;;;;;10.90;100.00;101454.81;4881559;29;20037;-76
2022/10/27 07:24:07;;;;;;;32.88;13.68;;;;;;;11.46;100.00;101457.53;4895822;29;20065;-75
2022/10/27 07:26:34;;;;;;;35.72;16.05;;;;;;;12.19;100.00;101457.69;4880103;29;20064;-75
2022/10/27 07:29:02;;;;;;;36.08;15.50;;;;;;;12.88;100.00;101454.19;4864392;29;20045;-75
2022/10/27 07:31:28;;;;;;;31.85;14.10;;;;;;;13.67;100.00;101464.31;4880925;29;20029;-75
2022/10/27 07:33:53;;;;;;;28.25;13.55;;;;;;;14.37;100.00;101464.81;4880862;29;20037;-74
2022/10/27 07:36:19;;;;;;;39.53;13.48;;;;;;;15.03;100.00;101467.41;4881234;29;20033;-75
2022/10/27 07:38:45;;;;;;;25.00;12.20;;;;;;;15.61;100.00;101464.50;4879458;29;20127;-75
2022/10/27 07:41:11;;;;;;;26.63;11.60;;;;;;;16.09;100.00;101464.19;4880980;29;20036;-75
2022/10/27 07:43:38;;;;;;;27.50;10.85;;;;;;;16.57;100.00;101470.34;4881226;29;20028;-75
2022/10/27 07:46:04;;;;;;;28.50;12.65;;;;;;;17.00;100.00;101474.22;4879922;29;20025;-75
2022/10/27 07:48:29;;;;;;;27.60;12.23;;;;;;;17.45;100.00;101471.75;4863929;29;20036;-75
2022/10/27 07:50:54;;;;;;;59.65;17.15;;;;;;;17.82;100.00;101473.38;4879501;29;20028;-75
2022/10/27 07:53:20;;;;;;;73.38;16.35;;;;;;;18.12;100.00;101481.72;4880909;29;20044;-76
2022/10/27 07:55:46;;;;;;;30.95;11.40;;;;;;;18.41;100.00;101477.69;4880703;29;20036;-75
2022/10/27 07:58:14;;;;;;;24.88;10.57;;;;;;;18.79;100.00;101482.00;4880688;29;20033;-75
2022/10/27 08:00:46;;;;;;;22.58;10.00;;;;;;;19.25;100.00;101484.50;4880822;29;20037;-76
2022/10/27 08:03:19;;;;;;;26.67;12.15;;;;;;;19.53;100.00;101494.00;4880605;29;20045;-74
2022/10/27 08:05:46;;;;;;;24.77;11.48;;;;;;;19.57;100.00;101494.53;4863821;29;20057;-74
2022/10/27 08:08:13;;;;;;;22.88;10.68;;;;;;;19.64;100.00;101502.72;4880712;29;20203;-75
2022/10/27 08:10:41;;;;;;;17.30;10.02;;;;;;;19.65;100.00;101498.50;4879194;29;20478;-76
2022/10/27 08:13:07;;;;;;;20.10;10.52;;;;;;;19.59;100.00;101502.72;4863718;29;20040;-75
2022/10/27 08:15:34;;;;;;;77.43;18.45;;;;;;;19.50;100.00;101495.88;4879229;29;20040;-74
2022/10/27 08:18:03;;;;;;;121.28;24.35;;;;;;;19.42;100.00;101499.81;4878890;29;20136;-76
2022/10/27 08:20:31;;;;;;;38.10;12.75;;;;;;;19.16;100.00;101481.88;4879021;29;20075;-76
2022/10/27 08:23:13;;;;;;;75.25;17.70;;;;;;;19.15;100.00;101504.28;4878899;29;20040;-75
2022/10/27 08:25:39;;;;;;;72.78;16.88;;;;;;;18.97;100.00;101507.59;4880304;29;20040;-76
2022/10/27 08:28:05;;;;;;;20.85;10.13;;;;;;;18.76;100.00;101506.25;4878734;29;20041;-74
2022/10/27 08:30:32;;;;;;;19.73;10.35;;;;;;;18.52;100.00;101513.22;4879096;29;20037;-74
2022/10/27 08:32:59;;;;;;;18.00;10.25;;;;;;;18.32;100.00;101506.84;4878928;29;20037;-74
2022/10/27 08:35:27;;;;;;;18.70;10.02;;;;;;;18.12;100.00;101510.66;4878704;29;20479;-76
2022/10/27 08:38:08;;;;;;;24.83;11.02;;;;;;;17.94;100.00;101506.03;4859434;29;20548;-77
2022/10/27 08:40:56;;;;;;;32.17;12.68;;;;;;;17.79;100.00;101514.09;4862955;29;20458;-78
2022/10/27 08:43:50;;;;;;;257.95;38.20;;;;;;;17.59;100.00;101512.09;4880645;29;20029;-79
2022/10/27 08:46:54;;;;;;;75.88;17.58;;;;;;;17.44;100.00;101513.53;4882268;29;20037;-78
2022/10/27 08:49:27;;;;;;;24.38;9.80;;;;;;;17.36;100.00;101516.84;4875780;29;20060;-78
2022/10/27 08:51:57;;;;;;;16.65;8.35;;;;;;;17.31;100.00;101516.81;4899099;29;20040;-78
2022/10/27 08:54:24;;;;;;;17.15;8.63;;;;;;;17.11;100.00;101519.75;4896409;29;20059;-75
2022/10/27 08:56:50;;;;;;;15.13;8.45;;;;;;;16.98;100.00;101517.25;4899003;29;20044;-77
2022/10/27 08:59:22;;;;;;;24.15;8.52;;;;;;;16.96;100.00;101514.88;4893689;29;20028;-78
2022/10/27 09:01:59;;;;;;;24.10;8.75;;;;;;;17.02;100.00;101528.59;4878507;29;20071;-75
2022/10/27 09:04:24;;;;;;;46.35;11.13;;;;;;;17.06;100.00;101526.25;4862685;29;20094;-76
2022/10/27 09:06:53;;;;;;;26.00;7.82;;;;;;;17.05;100.00;101525.47;4879375;29;20072;-76
2022/10/27 09:09:56;;;;;;;18.00;8.85;;;;;;;17.09;100.00;101520.28;4879620;29;20040;-78
2022/10/27 09:12:45;;;;;;;20.38;8.75;;;;;;;17.07;100.00;101522.88;4878784;29;20036;-76
2022/10/27 09:15:36;;;;;;;22.67;8.55;;;;;;;17.12;100.00;101516.34;4862560;29;20029;-79
2022/10/27 09:18:26;;;;;;;13.52;6.60;;;;;;;17.18;100.00;101511.44;4879665;29;20040;-79
2022/10/27 09:21:04;;;;;;;15.68;6.43;;;;;;;17.23;100.00;101519.38;4878223;29;20067;-78
2022/10/27 09:23:57;;;;;;;18.02;6.97;;;;;;;17.21;100.00;101507.50;4878479;29;20033;-79
2022/10/27 09:26:26;;;;;;;17.38;7.53;;;;;;;17.29;100.00;101513.66;4878180;29;20128;-80
2022/10/27 09:28:53;;;;;;;17.60;7.57;;;;;;;17.32;100.00;101512.63;4878235;29;20387;-79
2022/10/27 09:31:34;;;;;;;15.73;6.63;;;;;;;17.39;100.00;101510.03;4879117;29;20056;-78
2022/10/27 09:34:17;;;;;;;20.88;7.18;;;;;;;17.41;100.00;101510.34;4879305;29;20498;-77
2022/10/27 09:36:43;;;;;;;17.63;7.30;;;;;;;17.47;100.00;101504.66;4882668;29;20025;-79
2022/10/27 09:39:09;;;;;;;13.65;6.53;;;;;;;17.54;100.00;101512.03;4881834;29;20085;-79
2022/10/27 09:41:35;;;;;;;51.33;13.65;;;;;;;17.56;100.00;101506.53;4882947;29;20057;-78
2022/10/27 09:44:03;;;;;;;17.50;6.75;;;;;;;17.59;100.00;101512.09;4881528;29;20044;-79
2022/10/27 09:46:29;;;;;;;15.68;6.50;;;;;;;17.65;100.00;101515.81;4881546;29;20040;-78
2022/10/27 09:48:57;;;;;;;18.42;7.85;;;;;;;17.69;100.00;101507.69;4865850;29;20048;-78
2022/10/27 09:51:39;;;;;;;13.43;6.88;;;;;;;17.73;100.00;101498.81;4865905;29;20033;-79
2022/10/27 09:54:04;;;;;;;12.35;6.85;;;;;;;17.73;100.00;101505.34;4881397;29;20120;-77
2022/10/27 09:56:32;;;;;;;9.80;6.70;;;;;;;17.82;100.00;101513.06;4882335;29;20180;-78
2022/10/27 09:59:03;;;;;;;25.58;7.57;;;;;;;17.78;100.00;101501.72;4881181;29;20533;-77
2022/10/27 10:01:43;;;;;;;17.98;7.05;;;;;;;17.77;100.00;101508.84;4882512;29;20084;-76
2022/10/27 10:04:35;;;;;;;22.90;7.43;;;;;;;17.86;100.00;101507.84;4882282;29;20033;-77
2022/10/27 10:07:04;;;;;;;13.93;6.28;;;;;;;17.91;100.00;101507.09;4863325;29;20514;-77
2022/10/27 10:09:34;;;;;;;18.27;6.80;;;;;;;17.96;100.00;101506.34;4863901;29;20463;-77
2022/10/27 10:12:23;;;;;;;23.95;7.50;;;;;;;18.00;100.00;101508.97;4862578;29;20033;-77
2022/10/27 10:15:10;;;;;;;27.23;8.13;;;;;;;18.02;100.00;101510.06;4863929;29;20113;-76
2022/10/27 10:17:36;;;;;;;16.77;7.43;;;;;;;18.07;100.00;101511.41;4859951;29;20116;-78
2022/10/27 10:20:03;;;;;;;17.15;6.85;;;;;;;18.09;100.00;101511.66;4862490;29;20528;-77
2022/10/27 10:22:32;;;;;;;68.00;14.50;;;;;;;18.12;100.00;101508.56;4877373;29;20053;-76
2022/10/27 10:25:03;;;;;;;19.75;7.40;;;;;;;18.17;100.00;101509.88;4846968;29;20065;-77
2022/10/27 10:27:33;;;;;;;13.48;6.70;;;;;;;18.15;100.00;101507.50;4862998;29;20113;-77
2022/10/27 10:30:01;;;;;;;15.52;7.15;;;;;;;18.13;100.00;101501.44;4862412;29;20069;-78
2022/10/27 10:32:34;;;;;;;11.18;6.75;;;;;;;18.12;100.00;101504.84;4863754;29;20064;-78
2022/10/27 10:35:02;;;;;;;45.00;12.43;;;;;;;18.12;100.00;101499.88;4863647;29;20037;-77
2022/10/27 10:37:38;;;;;;;11.32;6.53;;;;;;;18.12;100.00;101505.66;4847339;29;20041;-78
2022/10/27 10:40:12;;;;;;;28.05;8.55;;;;;;;18.11;100.00;101512.75;4863669;29;20060;-77
2022/10/27 10:42:38;;;;;;;13.80;7.63;;;;;;;18.10;100.00;101504.56;4863466;29;20029;-77
2022/10/27 10:45:17;;;;;;;86.75;14.93;;;;;;;18.13;100.00;101509.31;4863265;29;20485;-78
2022/10/27 10:47:46;;;;;;;291.73;42.55;;;;;;;18.10;100.00;101511.16;4877012;29;20037;-77
2022/10/27 10:50:13;;;;;;;24.35;7.32;;;;;;;18.06;100.00;101512.72;4846549;29;20539;-76
2022/10/27 10:52:47;;;;;;;16.92;6.20;;;;;;;18.06;100.00;101506.91;4863702;29;20380;-77
2022/10/27 10:55:25;;;;;;;10.50;5.97;;;;;;;18.05;100.00;101502.44;4863069;29;20037;-78
2022/10/27 10:57:52;;;;;;;16.80;8.18;;;;;;;18.00;100.00;101497.41;4862015;29;20034;-77
2022/10/27 11:00:20;;;;;;;17.38;7.13;;;;;;;18.03;100.00;101499.28;4876863;29;20051;-77
2022/10/27 11:03:00;;;;;;;21.30;7.10;;;;;;;18.01;100.00;101505.56;4862138;29;20041;-76
2022/10/27 11:05:35;;;;;;;18.00;8.18;;;;;;;18.10;100.00;101508.25;4883266;29;20041;-77
2022/10/27 11:08:05;;;;;;;15.40;7.72;;;;;;;18.11;100.00;101498.28;4881404;29;20079;-78
2022/10/27 11:10:37;;;;;;;25.95;7.88;;;;;;;18.15;100.00;101500.91;4880182;29;20191;-78
2022/10/27 11:13:11;;;;;;;24.00;8.65;;;;;;;18.23;100.00;101504.91;4880433;29;20025;-77
2022/10/27 11:15:42;;;;;;;23.38;8.65;;;;;;;18.33;100.00;101505.50;4864946;29;20049;-77
2022/10/27 11:19:06;;;;;;;15.80;7.97;;;;;;;18.44;100.00;101515.06;4881256;29;20463;-78
2022/10/27 11:22:03;;;;;;;18.35;8.60;;;;;;;18.53;100.00;101509.03;4823787;29;20126;-76
2022/10/27 11:24:29;;;;;;;15.93;7.75;;;;;;;18.59;100.00;101509.84;4853337;29;20041;-78